Terminal Aerodrome Forecast
Issued by NWS Paducah, KY

Home | Current Version | Previous Version | Text Only | Print | Product List | Glossary On
Versions: 1 2 3 4 5 6 7 8 9 10 11 12 13 14
963
FTUS43 KPAH 211734
TAFPAH
TAF
KPAH 211734Z 2118/2218 22009KT P6SM SCT250
     FM212100 26008KT P6SM FEW060 BKN180
     FM220000 32006KT P6SM SCT040 BKN120
     FM220200 35012G19KT P6SM SKC
     FM220900 01008KT P6SM SCT250=

USA.gov is the U.S. government's official web portal to all federal, state and local government web resources and services.